createdAt,value
2023-05-14T00:00:53.363Z,12.0955
2023-05-14T00:01:54.363Z,12.0524
2023-05-14T00:02:55.547Z,12.0323
2023-05-14T00:03:56.522Z,11.8926
2023-05-14T00:04:57.548Z,11.8156
2023-05-14T00:05:58.514Z,11.8991
2023-05-14T00:06:59.546Z,11.8870
2023-05-14T00:08:00.577Z,11.9301
2023-05-14T00:09:01.601Z,11.9478
2023-05-14T00:10:02.710Z,11.8849
2023-05-14T00:11:03.711Z,11.9717
2023-05-14T00:12:04.722Z,11.8613
2023-05-14T00:13:05.755Z,11.7680
2023-05-14T00:14:06.804Z,11.6852
2023-05-14T00:15:07.883Z,11.7292
2023-05-14T00:16:08.982Z,11.7318
2023-05-14T00:17:09.904Z,11.7589
2023-05-14T00:18:10.981Z,11.8441
2023-05-14T00:19:12.044Z,11.8632
2023-05-14T00:20:13.068Z,11.9607
2023-05-14T00:21:14.073Z,11.9990
2023-05-14T00:22:15.101Z,11.7929
2023-05-14T00:23:16.121Z,11.8294
2023-05-14T00:24:17.159Z,11.7143
2023-05-14T00:25:18.208Z,11.5909
2023-05-14T00:26:19.272Z,11.6060
2023-05-14T00:27:20.248Z,11.6311
2023-05-14T00:28:21.273Z,11.7254
2023-05-14T00:29:22.315Z,11.8437
2023-05-14T00:30:23.592Z,11.8807
2023-05-14T00:31:24.457Z,11.8602
2023-05-14T00:32:25.583Z,11.8920
2023-05-14T00:33:26.500Z,11.8499
2023-05-14T00:34:27.547Z,11.7054
2023-05-14T00:35:28.599Z,11.8463
2023-05-14T00:36:29.661Z,11.8882
2023-05-14T00:37:30.638Z,12.0928
2023-05-14T00:38:31.677Z,12.2070
2023-05-14T00:39:32.711Z,12.0973
2023-05-14T00:40:33.782Z,11.8401
2023-05-14T00:41:34.883Z,11.7172
2023-05-14T00:42:35.895Z,11.6920
2023-05-14T00:43:36.905Z,11.7909
2023-05-14T00:44:37.955Z,11.8990
2023-05-14T00:45:38.934Z,12.0024
2023-05-14T00:46:40.066Z,12.0371
2023-05-14T00:47:41.141Z,11.8990
2023-05-14T00:48:42.079Z,11.7611
2023-05-14T00:49:43.077Z,11.7748
2023-05-14T00:50:44.156Z,12.0208
2023-05-14T00:51:45.186Z,12.2703
2023-05-14T00:52:46.228Z,12.1069
2023-05-14T00:53:47.221Z,12.2247
2023-05-14T00:54:48.316Z,12.1343
2023-05-14T00:55:49.321Z,12.1306
2023-05-14T00:56:50.363Z,12.2506
2023-05-14T00:57:51.472Z,12.2725
2023-05-14T00:58:52.425Z,12.3798
2023-05-14T00:59:53.458Z,11.9901
2023-05-14T01:00:54.586Z,12.0025
2023-05-14T01:01:55.563Z,12.3132
2023-05-14T01:02:56.673Z,12.0186
2023-05-14T01:03:57.872Z,11.7982
2023-05-14T01:04:58.704Z,11.8084
2023-05-14T01:05:59.680Z,11.8035
2023-05-14T01:07:00.767Z,11.9515
2023-05-14T01:08:01.821Z,11.7942
2023-05-14T01:09:02.855Z,11.5638
2023-05-14T01:10:03.847Z,11.5616
2023-05-14T01:11:04.894Z,11.7130
2023-05-14T01:12:05.931Z,11.5966
2023-05-14T01:13:07.021Z,11.5992
2023-05-14T01:14:08.039Z,11.5580
2023-05-14T01:15:09.167Z,11.4148
2023-05-14T01:16:10.172Z,11.4166
2023-05-14T01:17:11.202Z,11.5488
2023-05-14T01:18:12.278Z,11.6467
2023-05-14T01:19:13.390Z,11.4534
2023-05-14T01:20:14.279Z,11.4014
2023-05-14T01:21:15.339Z,11.3444
2023-05-14T01:22:16.361Z,11.4996
2023-05-14T01:23:17.435Z,11.5939
2023-05-14T01:24:18.474Z,11.5591
2023-05-14T01:25:19.554Z,11.4313
2023-05-14T01:26:20.554Z,11.5700
2023-05-14T01:27:21.671Z,11.4605
2023-05-14T01:28:22.753Z,11.3011
2023-05-14T01:29:23.789Z,11.2962
2023-05-14T01:30:25.024Z,11.2960
2023-05-14T01:31:25.800Z,11.4667
2023-05-14T01:32:26.919Z,11.6449
2023-05-14T01:33:27.878Z,11.7154
2023-05-14T01:34:29.031Z,11.6433
2023-05-14T01:35:30.036Z,11.7789
2023-05-14T01:36:31.068Z,11.9026
2023-05-14T01:37:32.013Z,11.9625
2023-05-14T01:38:33.054Z,12.0072
2023-05-14T01:39:34.150Z,12.1331
2023-05-14T01:40:35.256Z,12.2163
2023-05-14T01:41:36.173Z,12.0531
2023-05-14T01:42:37.228Z,12.0214
2023-05-14T01:43:38.260Z,12.1590
2023-05-14T01:44:39.321Z,12.2160
2023-05-14T01:45:40.368Z,12.2332
2023-05-14T01:46:41.381Z,12.2195
2023-05-14T01:47:42.415Z,12.4135
2023-05-14T01:48:43.467Z,12.4305
2023-05-14T01:49:44.497Z,12.2521
2023-05-14T01:50:45.586Z,12.3629
2023-05-14T01:51:46.545Z,12.4203
2023-05-14T01:52:47.651Z,12.3850
2023-05-14T01:53:48.626Z,12.3196
2023-05-14T01:54:49.746Z,12.3949
2023-05-14T01:55:50.773Z,12.4731
2023-05-14T01:56:51.732Z,12.4809
2023-05-14T01:57:52.792Z,12.5116
2023-05-14T01:58:53.852Z,12.4960
2023-05-14T01:59:54.946Z,12.3607
2023-05-14T02:00:55.932Z,12.1710
2023-05-14T02:01:57.128Z,12.0715
2023-05-14T02:02:58.023Z,12.0600
2023-05-14T02:03:59.098Z,12.2232
2023-05-14T02:05:00.109Z,12.0780
2023-05-14T02:06:01.169Z,12.0017
2023-05-14T02:07:02.091Z,12.0196
2023-05-14T02:08:03.180Z,11.9486
2023-05-14T02:09:04.276Z,12.0209
2023-05-14T02:10:05.304Z,12.0070
2023-05-14T02:11:06.384Z,11.9390
2023-05-14T02:12:07.388Z,12.0715
2023-05-14T02:13:08.335Z,12.1254
2023-05-14T02:14:09.436Z,12.1820
2023-05-14T02:15:10.496Z,12.0747
2023-05-14T02:16:11.534Z,11.9545
2023-05-14T02:17:12.488Z,11.8951
2023-05-14T02:18:13.599Z,11.9050
2023-05-14T02:19:14.666Z,11.9212
2023-05-14T02:20:15.807Z,11.9741
2023-05-14T02:21:16.695Z,12.2526
2023-05-14T02:22:17.708Z,12.3696
2023-05-14T02:23:20.594Z,12.3765
2023-05-14T02:24:19.800Z,12.2857
2023-05-14T02:25:20.881Z,12.0684
2023-05-14T02:26:21.946Z,11.9683
2023-05-14T02:27:22.907Z,12.0173
2023-05-14T02:28:23.989Z,12.1384
2023-05-14T02:29:24.991Z,12.1781
2023-05-14T02:30:26.126Z,12.0152
2023-05-14T02:31:27.173Z,12.1107
2023-05-14T02:32:28.348Z,12.1385
2023-05-14T02:33:29.203Z,11.9666
2023-05-14T02:34:30.170Z,11.8435
2023-05-14T02:35:31.280Z,11.8561
2023-05-14T02:36:32.291Z,11.8427
2023-05-14T02:37:33.253Z,12.0065
2023-05-14T02:38:34.352Z,12.2716
2023-05-14T02:39:35.348Z,12.3238
2023-05-14T02:40:36.469Z,12.2776
2023-05-14T02:41:37.517Z,12.2095
2023-05-14T02:42:38.520Z,12.2893
2023-05-14T02:43:39.496Z,12.3037
2023-05-14T02:44:40.655Z,12.3031
2023-05-14T02:45:41.621Z,12.1119
2023-05-14T02:46:42.745Z,11.9090
2023-05-14T02:47:43.750Z,11.8928
2023-05-14T02:48:44.773Z,11.8245
2023-05-14T02:49:45.739Z,11.7492
2023-05-14T02:50:46.834Z,11.9595
2023-05-14T02:51:47.853Z,12.2270
2023-05-14T02:52:48.860Z,12.2554
2023-05-14T02:53:49.911Z,12.1027
2023-05-14T02:54:50.919Z,12.1114
2023-05-14T02:55:52.059Z,12.1285
2023-05-14T02:56:53.062Z,12.0911
2023-05-14T02:57:54.153Z,12.0756
2023-05-14T02:58:55.109Z,12.1731
2023-05-14T02:59:56.114Z,11.8266
2023-05-14T03:00:57.224Z,11.5040
2023-05-14T03:01:58.341Z,11.4508
2023-05-14T03:02:59.259Z,11.3600
2023-05-14T03:04:00.305Z,11.3802
2023-05-14T03:05:01.295Z,11.4308
2023-05-14T03:06:02.435Z,11.3704
2023-05-14T03:07:03.436Z,11.4371
2023-05-14T03:08:04.416Z,11.4935
2023-05-14T03:09:05.477Z,11.4690
2023-05-14T03:10:06.470Z,11.5524
2023-05-14T03:11:07.546Z,11.6642
2023-05-14T03:12:08.728Z,11.5078
2023-05-14T03:13:09.614Z,11.3824
2023-05-14T03:14:10.634Z,11.5930
2023-05-14T03:15:11.696Z,11.8839
2023-05-14T03:16:12.755Z,11.9269
2023-05-14T03:17:13.813Z,11.7994
2023-05-14T03:18:14.790Z,12.0753
2023-05-14T03:19:15.885Z,12.2612
2023-05-14T03:20:16.839Z,12.2886
2023-05-14T03:21:17.987Z,12.2037
2023-05-14T03:22:18.976Z,12.1483
2023-05-14T03:23:20.017Z,12.1537
2023-05-14T03:24:20.971Z,12.1401
2023-05-14T03:25:22.030Z,12.0592
2023-05-14T03:26:23.108Z,12.1266
2023-05-14T03:27:24.149Z,12.2112
2023-05-14T03:28:25.134Z,12.1936
2023-05-14T03:29:26.147Z,12.3218
2023-05-14T03:30:27.285Z,12.3157
2023-05-14T03:31:28.281Z,12.3109
2023-05-14T03:32:29.360Z,12.3097
2023-05-14T03:33:30.310Z,12.3144
2023-05-14T03:34:31.355Z,12.4889
2023-05-14T03:35:32.378Z,12.3866
2023-05-14T03:36:33.496Z,12.2369
2023-05-14T03:37:34.506Z,12.2920
2023-05-14T03:38:35.592Z,12.1067
2023-05-14T03:39:36.548Z,11.9470
2023-05-14T03:40:37.669Z,11.7938
2023-05-14T03:41:38.648Z,11.8498
2023-05-14T03:42:39.793Z,11.8560
2023-05-14T03:43:40.720Z,11.8687
2023-05-14T03:44:41.713Z,11.8284
2023-05-14T03:45:42.828Z,11.6218
2023-05-14T03:46:43.843Z,11.5050
2023-05-14T03:47:44.869Z,11.5747
2023-05-14T03:48:45.915Z,11.6608
2023-05-14T03:49:46.894Z,11.7223
2023-05-14T03:50:48.027Z,11.7167
2023-05-14T03:51:49.019Z,11.7303
2023-05-14T03:52:50.075Z,11.7100
2023-05-14T03:53:51.055Z,11.6903
2023-05-14T03:54:52.093Z,11.7455
2023-05-14T03:55:53.112Z,11.8782
2023-05-14T03:56:54.276Z,11.9619
2023-05-14T03:57:55.273Z,11.9998
2023-05-14T03:58:56.266Z,11.9237
2023-05-14T03:59:57.268Z,11.7668
2023-05-14T04:00:58.349Z,11.6048
2023-05-14T04:01:59.393Z,11.5207
2023-05-14T04:03:00.607Z,11.4666
2023-05-14T04:04:01.616Z,11.4234
2023-05-14T04:05:02.454Z,11.2449
2023-05-14T04:06:03.578Z,11.0497
2023-05-14T04:07:04.582Z,11.0203
2023-05-14T04:08:05.647Z,11.0555
2023-05-14T04:09:06.598Z,11.0720
2023-05-14T04:10:07.686Z,11.2243
2023-05-14T04:11:08.710Z,11.3018
2023-05-14T04:12:09.780Z,11.3238
2023-05-14T04:13:10.909Z,11.4241
2023-05-14T04:14:11.807Z,11.4617
2023-05-14T04:15:12.924Z,11.5085
2023-05-14T04:16:14.024Z,11.4662
2023-05-14T04:17:14.979Z,11.3026
2023-05-14T04:18:16.073Z,11.2076
2023-05-14T04:19:17.151Z,11.1537
2023-05-14T04:20:18.021Z,11.3755
2023-05-14T04:21:19.057Z,11.4077
2023-05-14T04:22:20.156Z,11.4619
2023-05-14T04:23:21.216Z,11.6466
2023-05-14T04:24:22.206Z,11.6883
2023-05-14T04:25:23.225Z,11.5359
2023-05-14T04:26:24.349Z,11.5338
2023-05-14T04:27:25.351Z,11.5580
2023-05-14T04:28:26.391Z,11.6584
2023-05-14T04:29:27.422Z,11.5598
2023-05-14T04:30:28.434Z,11.5786
2023-05-14T04:31:29.591Z,11.8032
2023-05-14T04:32:30.642Z,11.9905
2023-05-14T04:33:31.587Z,11.9654
2023-05-14T04:34:32.665Z,11.8250
2023-05-14T04:35:33.710Z,11.7302
2023-05-14T04:36:34.664Z,11.7994
2023-05-14T04:37:35.786Z,11.9026
2023-05-14T04:38:36.836Z,11.8708
2023-05-14T04:39:37.784Z,11.7554
2023-05-14T04:40:38.824Z,11.6039
2023-05-14T04:41:39.872Z,11.5332
2023-05-14T04:42:40.981Z,11.6070
2023-05-14T04:43:41.985Z,11.5485
2023-05-14T04:44:42.986Z,11.6102
2023-05-14T04:45:44.068Z,11.7090
2023-05-14T04:46:45.076Z,11.6617
2023-05-14T04:47:46.225Z,11.6038
2023-05-14T04:48:47.229Z,11.8540
2023-05-14T04:49:48.141Z,11.6500
2023-05-14T04:50:49.188Z,11.5467
2023-05-14T04:51:50.228Z,11.4983
2023-05-14T04:52:51.352Z,11.4319
2023-05-14T04:53:52.382Z,11.5430
2023-05-14T04:54:53.358Z,11.6902
2023-05-14T04:55:54.383Z,11.8410
2023-05-14T04:56:55.421Z,11.8929
2023-05-14T04:57:56.502Z,12.0775
2023-05-14T04:58:57.533Z,12.0246
2023-05-14T04:59:58.548Z,12.0843
2023-05-14T05:00:59.714Z,12.2009
2023-05-14T05:02:00.629Z,12.1914
2023-05-14T05:03:01.800Z,12.1550
2023-05-14T05:04:02.764Z,12.0899
2023-05-14T05:05:03.742Z,12.1182
2023-05-14T05:06:04.800Z,12.1249
2023-05-14T05:07:05.869Z,12.0806
2023-05-14T05:08:06.947Z,11.9963
2023-05-14T05:09:07.939Z,11.8930
2023-05-14T05:10:08.995Z,11.7989
2023-05-14T05:11:10.014Z,11.7376
2023-05-14T05:12:11.024Z,11.7360
2023-05-14T05:13:12.090Z,11.8903
2023-05-14T05:14:13.149Z,11.7665
2023-05-14T05:15:14.215Z,11.8370
2023-05-14T05:16:15.325Z,12.1098
2023-05-14T05:17:16.289Z,12.1736
2023-05-14T05:18:17.360Z,12.1997
2023-05-14T05:19:19.730Z,12.1911
2023-05-14T05:20:19.392Z,12.1795
2023-05-14T05:21:20.421Z,12.3209
2023-05-14T05:22:21.510Z,12.4802
2023-05-14T05:23:22.552Z,12.5639
2023-05-14T05:24:23.590Z,12.7465
2023-05-14T05:25:24.552Z,12.8270
2023-05-14T05:26:25.617Z,12.8018
2023-05-14T05:27:26.658Z,12.6444
2023-05-14T05:28:27.757Z,12.4276
2023-05-14T05:29:28.841Z,12.4738
2023-05-14T05:30:29.793Z,12.7429
2023-05-14T05:31:30.854Z,12.6024
2023-05-14T05:32:31.936Z,12.3368
2023-05-14T05:33:32.973Z,12.0659
2023-05-14T05:34:34.036Z,11.9509
2023-05-14T05:35:34.952Z,11.7923
2023-05-14T05:36:35.997Z,11.6500
2023-05-14T05:37:37.038Z,11.7035
2023-05-14T05:38:38.161Z,11.6851
2023-05-14T05:39:39.179Z,11.7344
2023-05-14T05:40:40.183Z,11.8491
2023-05-14T05:41:41.205Z,11.9358
2023-05-14T05:42:42.233Z,12.2699
2023-05-14T05:43:43.297Z,12.3150
2023-05-14T05:44:44.386Z,12.2098
2023-05-14T05:45:45.352Z,12.3202
2023-05-14T05:46:46.498Z,12.4515
2023-05-14T05:47:47.531Z,12.6165
2023-05-14T05:48:48.492Z,12.6371
2023-05-14T05:49:49.580Z,12.6350
2023-05-14T05:50:50.547Z,12.5796
2023-05-14T05:51:51.653Z,12.6742
2023-05-14T05:52:52.638Z,12.7373
2023-05-14T05:53:53.704Z,12.5752
2023-05-14T05:54:54.730Z,12.7229
2023-05-14T05:55:55.746Z,12.6909
2023-05-14T05:56:56.870Z,12.5712
2023-05-14T05:57:57.847Z,12.3235
2023-05-14T05:58:58.938Z,12.0772
2023-05-14T05:59:59.996Z,12.0401
2023-05-14T06:01:00.957Z,12.2437
2023-05-14T06:02:02.028Z,12.5092
2023-05-14T06:03:03.113Z,12.4830
2023-05-14T06:04:04.086Z,12.4753
2023-05-14T06:05:05.138Z,12.5404
2023-05-14T06:06:06.099Z,12.4459
2023-05-14T06:07:07.234Z,12.2714
2023-05-14T06:08:08.190Z,12.2183
2023-05-14T06:09:09.260Z,12.0626
2023-05-14T06:10:10.283Z,12.1309
2023-05-14T06:11:11.299Z,12.1936
2023-05-14T06:12:12.299Z,12.2888
2023-05-14T06:13:13.404Z,11.9774
2023-05-14T06:14:14.541Z,11.8365
2023-05-14T06:15:15.532Z,11.9276
2023-05-14T06:16:16.537Z,12.0222
2023-05-14T06:17:17.560Z,12.1766
2023-05-14T06:18:18.592Z,12.2488
2023-05-14T06:19:19.711Z,12.1643
2023-05-14T06:20:20.816Z,12.0365
2023-05-14T06:21:21.670Z,12.0493
2023-05-14T06:22:22.746Z,12.2796
2023-05-14T06:23:23.758Z,12.3401
2023-05-14T06:24:24.878Z,12.4574
2023-05-14T06:25:25.920Z,12.4084
2023-05-14T06:26:26.969Z,12.1565
2023-05-14T06:27:27.921Z,12.0038
2023-05-14T06:28:29.014Z,12.0509
2023-05-14T06:29:30.073Z,12.1318
2023-05-14T06:30:31.001Z,12.0217
2023-05-14T06:31:32.013Z,11.9038
2023-05-14T06:32:33.045Z,11.8030
2023-05-14T06:33:34.082Z,11.7147
2023-05-14T06:34:35.183Z,11.6792
2023-05-14T06:35:36.153Z,11.6005
2023-05-14T06:36:37.193Z,11.6689
2023-05-14T06:37:38.217Z,11.9016
2023-05-14T06:38:39.273Z,11.9621
2023-05-14T06:39:40.299Z,11.9621
2023-05-14T06:40:41.382Z,11.8595
2023-05-14T06:41:42.354Z,11.8841
2023-05-14T06:42:43.420Z,12.1172
2023-05-14T06:43:44.433Z,12.2224
2023-05-14T06:44:45.542Z,12.3583
2023-05-14T06:45:46.541Z,12.2660
2023-05-14T06:46:47.564Z,12.1781
2023-05-14T06:47:48.619Z,12.1600
2023-05-14T06:48:49.693Z,11.9318
2023-05-14T06:49:50.714Z,11.7371
2023-05-14T06:50:51.771Z,11.8720
2023-05-14T06:51:52.806Z,11.8599
2023-05-14T06:52:53.831Z,11.9399
2023-05-14T06:53:54.838Z,11.9700
2023-05-14T06:54:55.879Z,12.0841
2023-05-14T06:55:56.939Z,12.0862
2023-05-14T06:56:58.009Z,11.8365
2023-05-14T06:57:59.006Z,11.9339
2023-05-14T06:59:00.054Z,11.9435
2023-05-14T07:00:03.262Z,11.6892
2023-05-14T07:01:02.172Z,11.6334
2023-05-14T07:02:03.189Z,11.4661
2023-05-14T07:03:04.237Z,11.4935
2023-05-14T07:04:05.237Z,11.6744
2023-05-14T07:05:06.273Z,11.7749
2023-05-14T07:06:07.323Z,11.7613
2023-05-14T07:07:08.374Z,11.7473
2023-05-14T07:08:09.373Z,11.7535
2023-05-14T07:09:10.416Z,11.8106
2023-05-14T07:10:11.427Z,11.7689
2023-05-14T07:11:12.517Z,11.6770
2023-05-14T07:12:13.516Z,11.7379
2023-05-14T07:13:14.550Z,11.6690
2023-05-14T07:14:15.576Z,11.6970
2023-05-14T07:15:16.640Z,11.5751
2023-05-14T07:16:17.709Z,11.5852
2023-05-14T07:17:18.854Z,11.7135
2023-05-14T07:18:19.712Z,11.6702
2023-05-14T07:19:20.771Z,11.5983
2023-05-14T07:20:22.031Z,11.4787
2023-05-14T07:21:22.905Z,11.7517
2023-05-14T07:22:23.879Z,11.7553
2023-05-14T07:23:24.933Z,11.7088
2023-05-14T07:24:25.947Z,11.7833
2023-05-14T07:25:26.995Z,11.9777
2023-05-14T07:26:28.041Z,12.0754
2023-05-14T07:27:29.078Z,11.8204
2023-05-14T07:28:30.114Z,11.7437
2023-05-14T07:29:31.115Z,11.8918
2023-05-14T07:30:32.210Z,12.1430
2023-05-14T07:31:33.270Z,12.3048
2023-05-14T07:32:34.283Z,12.4115
2023-05-14T07:33:35.278Z,12.3267
2023-05-14T07:34:36.324Z,12.3489
2023-05-14T07:35:37.314Z,12.1884
2023-05-14T07:36:38.410Z,12.1172
2023-05-14T07:37:39.433Z,12.2247
2023-05-14T07:38:40.456Z,12.2523
2023-05-14T07:39:41.488Z,12.2985
2023-05-14T07:40:42.528Z,12.2267
2023-05-14T07:41:43.641Z,12.1313
2023-05-14T07:42:44.626Z,12.0895
2023-05-14T07:43:45.606Z,12.1407
2023-05-14T07:44:46.651Z,12.3669
2023-05-14T07:45:47.695Z,12.6511
2023-05-14T07:46:48.772Z,12.9392
2023-05-14T07:47:49.803Z,12.9571
2023-05-14T07:48:50.818Z,13.0034
2023-05-14T07:49:51.816Z,12.8244
2023-05-14T07:50:52.860Z,12.6845
2023-05-14T07:51:53.877Z,12.6412
2023-05-14T07:52:55.026Z,12.5409
2023-05-14T07:53:55.926Z,12.6407
2023-05-14T07:54:56.977Z,12.6025
2023-05-14T07:55:58.225Z,12.8078
2023-05-14T07:56:59.082Z,12.7862
2023-05-14T07:58:00.158Z,12.6465
2023-05-14T07:59:01.115Z,12.6837
2023-05-14T08:00:02.156Z,12.9364
2023-05-14T08:01:03.179Z,12.9982
2023-05-14T08:02:04.276Z,12.8594
2023-05-14T08:03:05.456Z,12.8699
2023-05-14T08:04:06.384Z,12.8780
2023-05-14T08:05:07.317Z,12.9200
2023-05-14T08:06:08.298Z,12.9766
2023-05-14T08:07:09.411Z,12.8781
2023-05-14T08:08:10.395Z,12.9132
2023-05-14T08:09:11.395Z,12.9585
2023-05-14T08:10:12.489Z,12.8218
2023-05-14T08:11:13.477Z,12.9723
2023-05-14T08:12:14.552Z,13.0144
2023-05-14T08:13:15.576Z,12.7581
2023-05-14T08:14:16.575Z,12.8680
2023-05-14T08:15:17.623Z,12.8245
2023-05-14T08:16:18.660Z,12.6487
2023-05-14T08:17:19.753Z,12.7098
2023-05-14T08:18:20.721Z,12.8016
2023-05-14T08:19:21.797Z,12.7764
2023-05-14T08:20:23.058Z,12.6169
2023-05-14T08:21:23.836Z,12.6812
2023-05-14T08:22:24.899Z,12.7497
2023-05-14T08:23:25.985Z,12.6632
2023-05-14T08:24:26.899Z,12.8201
2023-05-14T08:25:27.933Z,12.8519
2023-05-14T08:26:28.980Z,12.9651
2023-05-14T08:27:30.056Z,13.1055
2023-05-14T08:28:31.119Z,13.2945
2023-05-14T08:29:32.097Z,13.3294
2023-05-14T08:30:33.162Z,13.1288
2023-05-14T08:31:34.155Z,13.0405
2023-05-14T08:32:35.244Z,12.9904
2023-05-14T08:33:36.264Z,12.8270
2023-05-14T08:34:37.297Z,12.7702
2023-05-14T08:35:38.321Z,12.7752
2023-05-14T08:36:39.388Z,12.9048
2023-05-14T08:37:40.383Z,12.9186
2023-05-14T08:38:41.433Z,12.8518
2023-05-14T08:39:42.582Z,12.7752
2023-05-14T08:40:43.497Z,12.7080
2023-05-14T08:41:44.543Z,12.7508
2023-05-14T08:42:45.611Z,12.8845
2023-05-14T08:43:46.616Z,12.7357
2023-05-14T08:44:47.638Z,12.7641
2023-05-14T08:45:48.660Z,12.8424
2023-05-14T08:46:49.677Z,12.8520
2023-05-14T08:47:50.991Z,12.9546
2023-05-14T08:48:51.828Z,13.0187
2023-05-14T08:49:52.885Z,13.1959
2023-05-14T08:50:53.885Z,13.1442
2023-05-14T08:51:54.895Z,13.0600
2023-05-14T08:52:55.885Z,13.1182
2023-05-14T08:53:57.004Z,13.3018
2023-05-14T08:54:58.005Z,13.4944
2023-05-14T08:55:59.064Z,13.4949
2023-05-14T08:57:00.046Z,13.5281
2023-05-14T08:58:01.109Z,13.4396
2023-05-14T08:59:02.266Z,13.4612
2023-05-14T09:00:03.299Z,13.6257
2023-05-14T09:01:04.399Z,13.8162
2023-05-14T09:02:26.259Z,13.8634
2023-05-14T09:03:06.460Z,13.6956
2023-05-14T09:04:07.468Z,13.7292
2023-05-14T09:05:08.571Z,13.8760
2023-05-14T09:06:09.545Z,13.9823
2023-05-14T09:07:10.532Z,13.8688
2023-05-14T09:08:11.571Z,13.9187
2023-05-14T09:09:12.650Z,13.9159
2023-05-14T09:10:13.668Z,13.9939
2023-05-14T09:11:14.755Z,13.9545
2023-05-14T09:12:15.733Z,13.8118
2023-05-14T09:13:16.757Z,13.9794
2023-05-14T09:14:17.753Z,14.2100
2023-05-14T09:15:18.996Z,14.1298
2023-05-14T09:16:20.057Z,14.0612
2023-05-14T09:17:21.052Z,14.2158
2023-05-14T09:18:21.996Z,14.2413
2023-05-14T09:19:23.155Z,13.9427
2023-05-14T09:20:24.286Z,13.8157
2023-05-14T09:21:25.164Z,13.5643
2023-05-14T09:22:26.135Z,13.4664
2023-05-14T09:23:27.289Z,13.5186
2023-05-14T09:24:28.214Z,13.7516
2023-05-14T09:25:29.390Z,13.9291
2023-05-14T09:26:30.343Z,14.0769
2023-05-14T09:27:31.331Z,14.1742
2023-05-14T09:28:32.354Z,14.0488
2023-05-14T09:29:33.443Z,14.0249
2023-05-14T09:30:34.506Z,13.7983
2023-05-14T09:31:35.568Z,13.8616
2023-05-14T09:32:36.512Z,13.8288
2023-05-14T09:33:37.663Z,13.8450
2023-05-14T09:34:38.581Z,13.9550
2023-05-14T09:35:39.713Z,13.9842
2023-05-14T09:36:40.715Z,13.9214
2023-05-14T09:37:41.710Z,13.8129
2023-05-14T09:38:42.714Z,13.7620
2023-05-14T09:39:43.842Z,13.8219
2023-05-14T09:40:44.929Z,13.8046
2023-05-14T09:41:45.917Z,13.8567
2023-05-14T09:42:46.869Z,13.9276
2023-05-14T09:43:48.003Z,13.8445
2023-05-14T09:44:48.973Z,13.9935
2023-05-14T09:45:50.080Z,14.0043
2023-05-14T09:46:51.108Z,14.0223
2023-05-14T09:47:52.181Z,13.9333
2023-05-14T09:48:53.095Z,13.7548
2023-05-14T09:49:54.175Z,13.7920
2023-05-14T09:50:55.214Z,13.7943
2023-05-14T09:51:56.282Z,13.4695
2023-05-14T09:52:57.293Z,13.5868
2023-05-14T09:53:58.279Z,13.7824
2023-05-14T09:54:59.310Z,14.0284
2023-05-14T09:56:00.414Z,14.0754
2023-05-14T09:57:01.413Z,13.9226
2023-05-14T09:58:02.450Z,13.7847
2023-05-14T09:59:03.494Z,13.7812
2023-05-14T10:00:04.527Z,13.7268
2023-05-14T10:01:05.676Z,13.9354
2023-05-14T10:02:06.656Z,14.1868
2023-05-14T10:03:07.701Z,14.1610
2023-05-14T10:04:08.734Z,14.0949
2023-05-14T10:05:09.775Z,13.9273
2023-05-14T10:06:10.794Z,13.7689
2023-05-14T10:07:11.791Z,13.5487
2023-05-14T10:08:12.824Z,13.4231
2023-05-14T10:09:14.056Z,13.2985
2023-05-14T10:10:14.860Z,13.3924
2023-05-14T10:11:16.006Z,13.5632
2023-05-14T10:12:17.072Z,13.6107
2023-05-14T10:13:17.982Z,13.5343
2023-05-14T10:14:19.020Z,13.5761
2023-05-14T10:15:20.029Z,13.6795
2023-05-14T10:16:21.169Z,13.7264
2023-05-14T10:17:22.149Z,13.6067
2023-05-14T10:18:23.174Z,13.4361
2023-05-14T10:19:24.342Z,13.2251
2023-05-14T10:20:25.482Z,13.2888
2023-05-14T10:21:26.359Z,13.4147
2023-05-14T10:22:27.370Z,13.4731
2023-05-14T10:23:28.311Z,13.4785
2023-05-14T10:24:29.353Z,13.3332
2023-05-14T10:25:30.453Z,13.3503
2023-05-14T10:26:31.527Z,13.4002
2023-05-14T10:27:32.510Z,13.4359
2023-05-14T10:28:33.531Z,13.6124
2023-05-14T10:29:34.573Z,13.7535
2023-05-14T10:30:35.593Z,13.9642
2023-05-14T10:31:36.850Z,14.1277
2023-05-14T10:32:37.730Z,13.9852
2023-05-14T10:33:38.745Z,14.0085
2023-05-14T10:34:39.691Z,13.8094
2023-05-14T10:35:40.752Z,13.6310
2023-05-14T10:36:41.789Z,13.7443
2023-05-14T10:37:42.897Z,13.8656
2023-05-14T10:38:43.898Z,13.9141
2023-05-14T10:39:44.872Z,14.0080
2023-05-14T10:40:45.905Z,14.0893
2023-05-14T10:41:46.953Z,14.3037
2023-05-14T10:42:48.031Z,14.5057
2023-05-14T10:43:49.117Z,14.5362
2023-05-14T10:44:50.032Z,14.3952
2023-05-14T10:45:51.084Z,14.2976
2023-05-14T10:46:52.170Z,14.3203
2023-05-14T10:47:53.272Z,14.2956
2023-05-14T10:48:54.294Z,14.1936
2023-05-14T10:49:55.129Z,14.1441
2023-05-14T10:50:56.192Z,14.0945
2023-05-14T10:51:57.236Z,14.2018
2023-05-14T10:52:58.336Z,14.3248
2023-05-14T10:53:59.294Z,14.4013
2023-05-14T10:55:02.879Z,14.4876
2023-05-14T10:56:01.377Z,14.5807
2023-05-14T10:57:02.389Z,14.5636
2023-05-14T10:58:03.456Z,14.5437
2023-05-14T10:59:04.463Z,14.6465
2023-05-14T11:00:05.482Z,14.7332
2023-05-14T11:01:06.553Z,14.9306
2023-05-14T11:02:07.724Z,15.0927
2023-05-14T11:03:08.675Z,15.2196
2023-05-14T11:04:09.675Z,15.3354
2023-05-14T11:05:10.645Z,15.2817
2023-05-14T11:06:11.691Z,15.1301
2023-05-14T11:07:12.690Z,15.0907
2023-05-14T11:08:13.798Z,15.0953
2023-05-14T11:09:14.797Z,15.1654
2023-05-14T11:10:15.797Z,15.3334
2023-05-14T11:11:16.818Z,15.5307
2023-05-14T11:12:17.852Z,15.7215
2023-05-14T11:13:18.981Z,15.9169
2023-05-14T11:14:19.955Z,16.0527
2023-05-14T11:15:20.977Z,16.0310
2023-05-14T11:16:23.734Z,16.1133
2023-05-14T11:17:23.069Z,15.9971
2023-05-14T11:18:24.101Z,15.7615
2023-05-14T11:19:25.180Z,15.4843
2023-05-14T11:20:26.336Z,15.1733
2023-05-14T11:21:27.232Z,14.9413
2023-05-14T11:22:28.190Z,14.8581
2023-05-14T11:23:29.315Z,14.8895
2023-05-14T11:24:30.429Z,14.9889
2023-05-14T11:25:31.388Z,14.8633
2023-05-14T11:26:32.452Z,14.5963
2023-05-14T11:27:33.396Z,14.6373
2023-05-14T11:28:34.660Z,14.7230
2023-05-14T11:29:35.500Z,14.7938
2023-05-14T11:30:36.536Z,14.8897
2023-05-14T11:31:37.595Z,14.9818
2023-05-14T11:32:38.681Z,15.0268
2023-05-14T11:33:39.659Z,14.8474
2023-05-14T11:34:40.726Z,14.8955
2023-05-14T11:35:41.755Z,14.9989
2023-05-14T11:36:42.720Z,14.8930
2023-05-14T11:37:43.759Z,14.9235
2023-05-14T11:38:44.816Z,14.9428
2023-05-14T11:39:45.842Z,14.7538
2023-05-14T11:40:46.897Z,14.8115
2023-05-14T11:41:47.921Z,14.7804
2023-05-14T11:42:48.955Z,14.7509
2023-05-14T11:43:49.959Z,14.8285
2023-05-14T11:44:51.017Z,14.9000
2023-05-14T11:45:52.124Z,15.0384
2023-05-14T11:46:53.136Z,15.0757
2023-05-14T11:47:54.272Z,15.2008
2023-05-14T11:48:55.332Z,15.1318
2023-05-14T11:49:56.330Z,14.9888
2023-05-14T11:50:57.440Z,15.1826
2023-05-14T11:51:58.507Z,15.1269
2023-05-14T11:52:59.477Z,14.9933
2023-05-14T11:54:00.482Z,15.0568
2023-05-14T11:55:01.577Z,15.2105
2023-05-14T11:56:02.598Z,15.0613
2023-05-14T11:57:03.629Z,15.1644
2023-05-14T11:58:04.593Z,15.1978
2023-05-14T11:59:05.708Z,15.1709
2023-05-14T12:00:06.755Z,15.3242
2023-05-14T12:01:07.833Z,15.4922
2023-05-14T12:02:08.841Z,15.4504
2023-05-14T12:03:09.910Z,15.2604
2023-05-14T12:04:10.992Z,15.0647
2023-05-14T12:05:11.859Z,15.1065
2023-05-14T12:06:12.934Z,15.3094
2023-05-14T12:07:14.030Z,15.4224
2023-05-14T12:08:14.958Z,15.3564
2023-05-14T12:09:16.028Z,15.0028
2023-05-14T12:10:17.084Z,14.6162
2023-05-14T12:11:18.152Z,14.3324
2023-05-14T12:12:19.190Z,14.2253
2023-05-14T12:13:20.204Z,14.1881
2023-05-14T12:14:21.228Z,13.9894
2023-05-14T12:15:22.263Z,13.6478
2023-05-14T12:16:23.446Z,13.4733
2023-05-14T12:17:24.519Z,13.3942
2023-05-14T12:18:25.486Z,13.4601